Waterloo, Iowa
Current Conditions -  °F | °C
As of 2:39 AM on Friday 24 Oct 2014 (Local Time) from KALO Reporting Station
Moderate Fog Moderate Fog  
Wind Chill: 47°   Ceiling: 200
Heat Index: 47°   Visibility: 0.25mi
Dew Point: 47°   Wind: 3mph
Humidity: 100%   Direction: 130°SE
Pressure: 30.03"   Gusts: NA
Location:  42.49°N, 92.34°W
Report Text: KALO 240739Z AUTO 13003KT 1/4SM R12/1200FT FG VV002 08/08 A3003 RMK AO2 RAE00 P0000 T00830083 $
Loading
Personal Weather Stations






























Interactive Weather Map
Tropical Storm Tracking
New forecast layout! Learn more

10-Day Weather Forecast

Advertisements
Track Severe Weather on mobile